Time,TemperatureF,DewpointF,PressureIn,WindDirection,WindDirectionDegrees,WindSpeedMPH,WindSpeedGustMPH,Humidity,HourlyPrecipIn,Conditions,Clouds,dailyrainin,SoftwareType,DateUTC
2013-05-22 00:14:00,54.6,54.0,29.92,WSW,252,6.0,8.0,98,0.00,,,0.00,weatherlink.com 1.10,2013-05-22 04:14:00,
2013-05-22 00:30:00,54.1,54.0,29.92,SW,231,5.0,9.0,98,0.00,,,0.00,weatherlink.com 1.10,2013-05-22 04:30:00,
2013-05-22 00:45:00,53.9,53.0,29.92,West,266,7.0,11.0,98,0.00,,,0.00,weatherlink.com 1.10,2013-05-22 04:45:00,
2013-05-22 01:00:00,53.8,53.0,29.94,SW,229,8.0,11.0,98,0.00,,,0.00,weatherlink.com 1.10,2013-05-22 05:00:00,
2013-05-22 01:15:00,53.6,53.0,29.95,WSW,245,11.0,15.0,98,0.00,,,0.00,weatherlink.com 1.10,2013-05-22 05:15:00,
2013-05-22 01:30:00,53.3,53.0,29.95,SW,226,11.0,15.0,98,0.00,,,0.00,weatherlink.com 1.10,2013-05-22 05:30:00,
2013-05-22 01:45:00,53.1,53.0,29.95,WSW,255,11.0,13.0,98,0.00,,,0.00,weatherlink.com 1.10,2013-05-22 05:45:00,
2013-05-22 02:00:00,52.8,52.0,29.94,WSW,240,11.0,14.0,98,0.00,,,0.00,weatherlink.com 1.10,2013-05-22 06:00:00,
2013-05-22 02:15:00,52.9,52.0,29.95,SW,222,8.0,15.0,98,0.00,,,0.00,weatherlink.com 1.10,2013-05-22 06:15:00,
2013-05-22 02:30:00,52.8,52.0,29.95,SW,236,11.0,16.0,98,0.00,,,0.00,weatherlink.com 1.10,2013-05-22 06:30:00,
2013-05-22 02:45:00,52.3,52.0,29.95,WSW,246,15.0,22.0,98,0.00,,,0.00,weatherlink.com 1.10,2013-05-22 06:45:00,
2013-05-22 03:00:00,52.0,52.0,29.93,WSW,245,13.0,20.0,98,0.00,,,0.00,weatherlink.com 1.10,2013-05-22 07:00:00,
2013-05-22 03:15:00,51.9,51.0,29.92,WSW,256,13.0,22.0,98,0.00,,,0.00,weatherlink.com 1.10,2013-05-22 07:15:00,
2013-05-22 03:30:00,51.9,51.0,29.91,WNW,290,14.0,17.0,98,0.00,,,0.00,weatherlink.com 1.10,2013-05-22 07:30:00,
2013-05-22 03:45:00,52.0,52.0,29.92,West,270,9.0,17.0,98,0.00,,,0.00,weatherlink.com 1.10,2013-05-22 07:45:00,
2013-05-22 04:00:00,52.0,52.0,29.92,WNW,292,10.0,16.0,98,0.00,,,0.00,weatherlink.com 1.10,2013-05-22 08:00:00,
2013-05-22 04:15:00,52.0,52.0,29.92,West,280,8.0,14.0,98,0.00,,,0.00,weatherlink.com 1.10,2013-05-22 08:15:00,
2013-05-22 04:30:00,52.1,52.0,29.91,WNW,298,18.0,19.0,98,0.00,,,0.00,weatherlink.com 1.10,2013-05-22 08:30:00,
2013-05-22 04:45:00,52.2,52.0,29.91,WNW,287,7.0,15.0,98,0.00,,,0.00,weatherlink.com 1.10,2013-05-22 08:45:00,
2013-05-22 05:00:00,52.2,52.0,29.91,WNW,297,8.0,13.0,98,0.00,,,0.00,weatherlink.com 1.10,2013-05-22 09:00:00,
2013-05-22 05:15:00,52.3,52.0,29.92,WNW,285,6.0,9.0,98,0.00,,,0.00,weatherlink.com 1.10,2013-05-22 09:15:00,
2013-05-22 05:30:00,52.5,52.0,29.96,SSE,157,5.0,7.0,98,0.00,,,0.00,weatherlink.com 1.10,2013-05-22 09:30:00,
2013-05-22 05:45:00,52.8,52.0,29.95,South,171,4.0,6.0,98,0.00,,,0.00,weatherlink.com 1.10,2013-05-22 09:45:00,
2013-05-22 06:00:00,52.9,52.0,29.95,West,281,3.0,5.0,98,0.00,,,0.00,weatherlink.com 1.10,2013-05-22 10:00:00,
2013-05-22 06:15:00,53.0,53.0,29.94,WSW,255,2.0,4.0,98,0.00,,,0.00,weatherlink.com 1.10,2013-05-22 10:15:00,
2013-05-22 06:30:00,53.2,53.0,29.92,SSE,154,0.0,5.0,98,0.00,,,0.00,weatherlink.com 1.10,2013-05-22 10:30:00,
2013-05-22 06:45:00,53.5,53.0,29.91,WNW,293,1.0,4.0,98,0.00,,,0.00,weatherlink.com 1.10,2013-05-22 10:45:00,
2013-05-22 07:00:00,53.8,53.0,29.90,WNW,295,2.0,5.0,98,0.00,,,0.00,weatherlink.com 1.10,2013-05-22 11:00:00,
2013-05-22 07:15:00,54.3,54.0,29.89,SSE,160,2.0,6.0,98,0.00,,,0.00,weatherlink.com 1.10,2013-05-22 11:15:00,
2013-05-22 07:30:00,55.9,55.0,29.89,SSW,211,1.0,7.0,98,0.00,,,0.00,weatherlink.com 1.10,2013-05-22 11:30:00,
2013-05-22 07:45:00,57.1,57.0,29.90,ENE,69,9.0,9.0,98,0.00,,,0.00,weatherlink.com 1.10,2013-05-22 11:45:00,
2013-05-22 08:00:00,58.0,57.0,29.91,East,101,6.0,13.0,97,0.00,,,0.00,weatherlink.com 1.10,2013-05-22 12:00:00,
2013-05-22 08:15:00,57.7,57.0,29.90,East,88,4.0,15.0,96,0.00,,,0.00,weatherlink.com 1.10,2013-05-22 12:15:00,
2013-05-22 08:30:00,58.6,57.0,29.89,ENE,65,9.0,12.0,95,0.00,,,0.00,weatherlink.com 1.10,2013-05-22 12:30:00,
2013-05-22 08:46:00,59.7,58.0,29.89,ENE,75,9.0,13.0,95,0.00,,,0.00,weatherlink.com 1.10,2013-05-22 12:46:00,
2013-05-22 09:01:00,61.2,59.0,29.88,East,82,9.0,15.0,93,0.00,,,0.00,weatherlink.com 1.10,2013-05-22 13:01:00,
2013-05-22 09:16:00,61.2,59.0,29.88,ENE,60,14.0,16.0,93,0.00,,,0.00,weatherlink.com 1.10,2013-05-22 13:16:00,
2013-05-22 09:31:00,62.0,59.0,29.89,NE,50,7.0,18.0,91,0.00,,,0.00,weatherlink.com 1.10,2013-05-22 13:31:00,
2013-05-22 09:46:00,61.4,59.0,29.89,East,91,13.0,19.0,91,0.00,,,0.00,weatherlink.com 1.10,2013-05-22 13:46:00,
2013-05-22 10:01:00,62.5,60.0,29.91,ESE,118,7.0,15.0,90,0.00,,,0.00,weatherlink.com 1.10,2013-05-22 14:01:00,
2013-05-22 10:16:00,62.2,59.0,29.91,East,98,7.0,13.0,90,0.00,,,0.00,weatherlink.com 1.10,2013-05-22 14:16:00,
2013-05-22 10:31:00,61.3,59.0,29.93,ESE,108,4.0,10.0,91,0.00,,,0.00,weatherlink.com 1.10,2013-05-22 14:31:00,
2013-05-22 10:46:00,60.9,59.0,29.93,NE,55,7.0,13.0,92,0.00,,,0.00,weatherlink.com 1.10,2013-05-22 14:46:00,
2013-05-22 11:01:00,61.2,59.0,29.93,ESE,113,6.0,12.0,92,0.00,,,0.00,weatherlink.com 1.10,2013-05-22 15:01:00,
2013-05-22 11:16:00,61.4,59.0,29.94,ENE,57,7.0,11.0,91,0.00,,,0.00,weatherlink.com 1.10,2013-05-22 15:16:00,
2013-05-22 11:31:00,60.9,59.0,29.94,ENE,74,2.0,9.0,92,0.00,,,0.00,weatherlink.com 1.10,2013-05-22 15:31:00,
2013-05-22 11:46:00,60.3,58.0,29.94,SE,145,6.0,8.0,91,0.00,,,0.00,weatherlink.com 1.10,2013-05-22 15:46:00,
2013-05-22 12:01:00,60.9,58.0,29.94,ESE,103,2.0,6.0,90,0.00,,,0.00,weatherlink.com 1.10,2013-05-22 16:01:00,
2013-05-22 12:16:00,61.6,59.0,29.94,WSW,252,2.0,5.0,90,0.00,,,0.00,weatherlink.com 1.10,2013-05-22 16:16:00,
2013-05-22 12:31:00,62.3,59.0,29.94,WSW,256,0.0,5.0,88,0.00,,,0.00,weatherlink.com 1.10,2013-05-22 16:31:00,
2013-05-22 12:46:00,63.3,59.0,29.94,East,94,2.0,4.0,86,0.00,,,0.00,weatherlink.com 1.10,2013-05-22 16:46:00,
2013-05-22 13:01:00,64.5,60.0,29.94,SSW,203,1.0,4.0,84,0.00,,,0.00,weatherlink.com 1.10,2013-05-22 17:01:00,
2013-05-22 13:16:00,63.5,59.0,29.94,NW,323,0.0,4.0,86,0.00,,,0.00,weatherlink.com 1.10,2013-05-22 17:16:00,
2013-05-22 13:31:00,65.4,61.0,29.94,WSW,245,4.0,5.0,84,0.00,,,0.00,weatherlink.com 1.10,2013-05-22 17:31:00,
2013-05-22 13:46:00,66.0,61.0,29.93,WSW,240,3.0,3.0,83,0.00,,,0.00,weatherlink.com 1.10,2013-05-22 17:46:00,
2013-05-22 14:01:00,62.5,57.0,29.93,WNW,288,9.0,10.0,83,0.00,,,0.00,weatherlink.com 1.10,2013-05-22 18:01:00,
2013-05-22 14:16:00,60.2,56.0,29.94,West,263,8.0,13.0,87,0.00,,,0.00,weatherlink.com 1.10,2013-05-22 18:16:00,
2013-05-22 14:31:00,58.8,56.0,29.94,West,275,10.0,12.0,90,0.00,,,0.00,weatherlink.com 1.10,2013-05-22 18:31:00,
2013-05-22 14:46:00,57.8,55.0,29.94,West,273,9.0,13.0,91,0.00,,,0.00,weatherlink.com 1.10,2013-05-22 18:46:00,
2013-05-22 15:01:00,57.3,55.0,29.93,WNW,283,8.0,14.0,93,0.00,,,0.00,weatherlink.com 1.10,2013-05-22 19:01:00,
2013-05-22 15:16:00,57.2,55.0,29.93,West,271,4.0,13.0,93,0.00,,,0.00,weatherlink.com 1.10,2013-05-22 19:16:00,
2013-05-22 15:31:00,57.1,55.0,29.93,WNW,293,11.0,13.0,92,0.00,,,0.00,weatherlink.com 1.10,2013-05-22 19:31:00,
2013-05-22 15:46:00,56.8,55.0,29.93,WNW,302,10.0,14.0,93,0.00,,,0.00,weatherlink.com 1.10,2013-05-22 19:46:00,
2013-05-22 16:01:00,57.2,55.0,29.93,WNW,285,7.0,11.0,92,0.00,,,0.00,weatherlink.com 1.10,2013-05-22 20:01:00,
2013-05-22 16:16:00,57.7,55.0,29.93,WNW,287,8.0,11.0,91,0.00,,,0.00,weatherlink.com 1.10,2013-05-22 20:16:00,
2013-05-22 16:31:00,57.7,55.0,29.93,WNW,285,7.0,11.0,91,0.00,,,0.00,weatherlink.com 1.10,2013-05-22 20:31:00,
2013-05-22 16:46:00,57.6,55.0,29.93,WNW,297,7.0,10.0,92,0.00,,,0.00,weatherlink.com 1.10,2013-05-22 20:46:00,
2013-05-22 17:01:00,57.9,56.0,29.93,WNW,287,7.0,11.0,92,0.00,,,0.00,weatherlink.com 1.10,2013-05-22 21:01:00,
2013-05-22 17:16:00,58.2,56.0,29.92,NW,316,4.0,13.0,92,0.00,,,0.00,weatherlink.com 1.10,2013-05-22 21:16:00,
2013-05-22 17:31:00,58.2,56.0,29.91,WNW,297,4.0,12.0,91,0.00,,,0.00,weatherlink.com 1.10,2013-05-22 21:31:00,
2013-05-22 17:46:00,57.9,55.0,29.91,West,263,6.0,13.0,91,0.00,,,0.00,weatherlink.com 1.10,2013-05-22 21:46:00,
2013-05-22 18:01:00,57.0,55.0,29.91,NW,316,5.0,13.0,93,0.00,,,0.00,weatherlink.com 1.10,2013-05-22 22:01:00,
2013-05-22 18:16:00,56.8,55.0,29.91,ENE,71,3.0,11.0,94,0.00,,,0.00,weatherlink.com 1.10,2013-05-22 22:16:00,
2013-05-22 18:31:00,56.5,55.0,29.92,WNW,295,3.0,11.0,95,0.00,,,0.00,weatherlink.com 1.10,2013-05-22 22:31:00,
2013-05-22 18:46:00,56.1,55.0,29.92,WNW,290,4.0,12.0,96,0.00,,,0.00,weatherlink.com 1.10,2013-05-22 22:46:00,
2013-05-22 19:01:00,56.1,55.0,29.93,NW,320,3.0,11.0,96,0.00,,,0.00,weatherlink.com 1.10,2013-05-22 23:01:00,
2013-05-22 19:16:00,56.0,55.0,29.93,NW,317,3.0,10.0,97,0.00,,,0.00,weatherlink.com 1.10,2013-05-22 23:16:00,
2013-05-22 19:31:00,56.1,55.0,29.92,NW,321,6.0,8.0,97,0.00,,,0.00,weatherlink.com 1.10,2013-05-22 23:31:00,
2013-05-22 19:46:00,56.1,55.0,29.92,NW,304,6.0,9.0,97,0.00,,,0.00,weatherlink.com 1.10,2013-05-22 23:46:00,
2013-05-22 20:01:00,56.2,55.0,29.92,NNW,339,4.0,7.0,97,0.00,,,0.00,weatherlink.com 1.10,2013-05-23 00:01:00,
2013-05-22 20:16:00,56.1,55.0,29.92,East,89,2.0,6.0,97,0.00,,,0.00,weatherlink.com 1.10,2013-05-23 00:16:00,
2013-05-22 20:31:00,56.2,55.0,29.92,NW,305,2.0,5.0,97,0.00,,,0.00,weatherlink.com 1.10,2013-05-23 00:31:00,
2013-05-22 20:46:00,56.3,56.0,29.92,NW,325,1.0,3.0,98,0.00,,,0.00,weatherlink.com 1.10,2013-05-23 00:46:00,
2013-05-22 21:01:00,56.6,56.0,29.92,ESE,117,1.0,3.0,98,0.00,,,0.00,weatherlink.com 1.10,2013-05-23 01:01:00,
2013-05-22 21:16:00,56.7,56.0,29.93,NW,316,1.0,2.0,98,0.00,,,0.00,weatherlink.com 1.10,2013-05-23 01:16:00,
2013-05-22 21:31:00,56.9,56.0,29.93,WNW,301,0.0,2.0,98,0.00,,,0.00,weatherlink.com 1.10,2013-05-23 01:31:00,
2013-05-22 21:46:00,57.2,57.0,29.94,WNW,301,0.0,0.0,98,0.00,,,0.00,weatherlink.com 1.10,2013-05-23 01:46:00,
2013-05-22 22:01:00,58.7,58.0,29.94,ENE,61,5.0,6.0,98,0.00,,,0.00,weatherlink.com 1.10,2013-05-23 02:01:00,
2013-05-22 22:16:00,60.3,60.0,29.94,ENE,77,5.0,12.0,98,0.00,,,0.00,weatherlink.com 1.10,2013-05-23 02:16:00,
2013-05-22 22:31:00,60.4,60.0,29.94,East,90,10.0,12.0,98,0.00,,,0.00,weatherlink.com 1.10,2013-05-23 02:31:00,
2013-05-22 22:46:00,60.5,60.0,29.94,ENE,68,8.0,12.0,98,0.00,,,0.00,weatherlink.com 1.10,2013-05-23 02:46:00,
2013-05-22 23:01:00,60.7,60.0,29.94,NE,50,9.0,11.0,98,0.01,,,0.01,weatherlink.com 1.10,2013-05-23 03:01:00,
2013-05-22 23:16:00,60.8,60.0,29.94,East,84,10.0,10.0,98,0.01,,,0.01,weatherlink.com 1.10,2013-05-23 03:16:00,
2013-05-22 23:31:00,61.1,61.0,29.94,East,92,5.0,10.0,98,0.01,,,0.01,weatherlink.com 1.10,2013-05-23 03:31:00,
2013-05-22 23:46:00,61.2,61.0,29.93,ENE,57,10.0,13.0,98,0.01,,,0.01,weatherlink.com 1.10,2013-05-23 03:46:00,